sensor_id;sensor_type;location;lat;lon;timestamp;pressure;altitude;pressure_sealevel;temperature;humidity
15529;BME280;7866;52.280;9.500;2022-12-19T00:01:51;100952.69;;;0.80;72.51
15529;BME280;7866;52.280;9.500;2022-12-19T00:06:55;100953.41;;;0.82;73.83
15529;BME280;7866;52.280;9.500;2022-12-19T00:11:57;100946.47;;;0.81;74.70
15529;BME280;7866;52.280;9.500;2022-12-19T00:17:01;100943.72;;;0.68;75.86
15529;BME280;7866;52.280;9.500;2022-12-19T00:22:02;100935.81;;;0.68;76.70
15529;BME280;7866;52.280;9.500;2022-12-19T00:27:04;100929.84;;;0.65;78.80
15529;BME280;7866;52.280;9.500;2022-12-19T00:32:07;100909.13;;;0.59;79.39
15529;BME280;7866;52.280;9.500;2022-12-19T00:37:09;100922.97;;;0.62;78.93
15529;BME280;7866;52.280;9.500;2022-12-19T00:42:11;100919.31;;;0.65;80.48
15529;BME280;7866;52.280;9.500;2022-12-19T00:47:14;100925.16;;;0.70;81.28
15529;BME280;7866;52.280;9.500;2022-12-19T00:52:16;100914.22;;;0.62;81.51
15529;BME280;7866;52.280;9.500;2022-12-19T00:57:17;100916.97;;;0.74;82.32
15529;BME280;7866;52.280;9.500;2022-12-19T01:02:20;100903.41;;;0.66;82.10
15529;BME280;7866;52.280;9.500;2022-12-19T01:07:22;100908.97;;;0.76;83.45
15529;BME280;7866;52.280;9.500;2022-12-19T01:12:24;100915.28;;;0.73;81.55
15529;BME280;7866;52.280;9.500;2022-12-19T01:17:44;100920.56;;;0.73;82.45
15529;BME280;7866;52.280;9.500;2022-12-19T01:22:46;100913.38;;;0.76;82.21
15529;BME280;7866;52.280;9.500;2022-12-19T01:27:48;100893.72;;;0.81;81.92
15529;BME280;7866;52.280;9.500;2022-12-19T01:32:53;100894.09;;;0.89;80.91
15529;BME280;7866;52.280;9.500;2022-12-19T01:37:55;100890.22;;;0.95;80.36
15529;BME280;7866;52.280;9.500;2022-12-19T01:42:56;100875.00;;;1.00;81.15
15529;BME280;7866;52.280;9.500;2022-12-19T01:48:15;100865.94;;;0.90;81.60
15529;BME280;7866;52.280;9.500;2022-12-19T01:53:20;100869.91;;;0.97;82.65
15529;BME280;7866;52.280;9.500;2022-12-19T01:58:24;100858.22;;;1.01;82.41
15529;BME280;7866;52.280;9.500;2022-12-19T02:03:28;100858.22;;;1.01;82.57
15529;BME280;7866;52.280;9.500;2022-12-19T02:08:31;100829.75;;;1.06;82.87
15529;BME280;7866;52.280;9.500;2022-12-19T02:13:33;100813.47;;;1.14;81.97
15529;BME280;7866;52.280;9.500;2022-12-19T02:18:42;100805.44;;;1.15;82.55
15529;BME280;7866;52.280;9.500;2022-12-19T02:24:12;100810.22;;;1.23;81.99
15529;BME280;7866;52.280;9.500;2022-12-19T02:29:26;100809.78;;;1.16;82.73
15529;BME280;7866;52.280;9.500;2022-12-19T02:34:39;100817.00;;;1.27;81.86
15529;BME280;7866;52.280;9.500;2022-12-19T02:39:48;100817.56;;;1.32;81.66
15529;BME280;7866;52.280;9.500;2022-12-19T02:44:51;100794.69;;;1.33;80.94
15529;BME280;7866;52.280;9.500;2022-12-19T02:49:56;100775.25;;;1.34;81.10
15529;BME280;7866;52.280;9.500;2022-12-19T02:55:00;100776.00;;;1.36;81.86
15529;BME280;7866;52.280;9.500;2022-12-19T03:00:05;100784.81;;;1.49;81.05
15529;BME280;7866;52.280;9.500;2022-12-19T03:05:13;100783.97;;;1.48;80.91
15529;BME280;7866;52.280;9.500;2022-12-19T03:10:26;100788.75;;;1.56;81.25
15529;BME280;7866;52.280;9.500;2022-12-19T03:15:32;100786.13;;;1.56;81.52
15529;BME280;7866;52.280;9.500;2022-12-19T03:20:42;100804.59;;;1.56;81.87
15529;BME280;7866;52.280;9.500;2022-12-19T03:25:49;100793.41;;;1.65;81.19
15529;BME280;7866;52.280;9.500;2022-12-19T03:30:57;100787.00;;;1.69;81.01
15529;BME280;7866;52.280;9.500;2022-12-19T03:36:03;100785.50;;;1.65;81.64
15529;BME280;7866;52.280;9.500;2022-12-19T03:41:06;100785.53;;;1.78;81.40
15529;BME280;7866;52.280;9.500;2022-12-19T03:46:13;100771.78;;;1.73;82.40
15529;BME280;7866;52.280;9.500;2022-12-19T03:51:24;100757.25;;;1.80;82.13
15529;BME280;7866;52.280;9.500;2022-12-19T03:56:34;100760.63;;;1.82;81.89
15529;BME280;7866;52.280;9.500;2022-12-19T04:01:40;100763.78;;;1.87;81.04
15529;BME280;7866;52.280;9.500;2022-12-19T04:06:44;100753.34;;;1.86;81.48
15529;BME280;7866;52.280;9.500;2022-12-19T04:11:49;100738.34;;;1.86;81.99
15529;BME280;7866;52.280;9.500;2022-12-19T04:16:56;100734.66;;;1.89;81.14
15529;BME280;7866;52.280;9.500;2022-12-19T04:22:06;100729.56;;;1.86;81.62
15529;BME280;7866;52.280;9.500;2022-12-19T04:27:12;100720.16;;;1.94;80.64
15529;BME280;7866;52.280;9.500;2022-12-19T04:32:15;100699.69;;;1.98;80.86
15529;BME280;7866;52.280;9.500;2022-12-19T04:37:18;100690.59;;;2.02;81.75
15529;BME280;7866;52.280;9.500;2022-12-19T04:42:20;100683.94;;;2.09;81.69
15529;BME280;7866;52.280;9.500;2022-12-19T04:47:22;100671.69;;;2.08;81.68
15529;BME280;7866;52.280;9.500;2022-12-19T04:52:25;100665.75;;;2.17;82.34
15529;BME280;7866;52.280;9.500;2022-12-19T04:57:28;100658.34;;;2.22;82.52
15529;BME280;7866;52.280;9.500;2022-12-19T05:02:29;100649.66;;;2.33;82.42
15529;BME280;7866;52.280;9.500;2022-12-19T05:07:32;100662.97;;;2.44;82.17
15529;BME280;7866;52.280;9.500;2022-12-19T05:12:34;100644.25;;;2.35;82.95
15529;BME280;7866;52.280;9.500;2022-12-19T05:17:36;100642.06;;;2.29;84.29
15529;BME280;7866;52.280;9.500;2022-12-19T05:22:39;100648.38;;;2.39;83.93
15529;BME280;7866;52.280;9.500;2022-12-19T05:27:41;100632.75;;;2.36;83.53
15529;BME280;7866;52.280;9.500;2022-12-19T05:32:42;100645.56;;;2.29;85.09
15529;BME280;7866;52.280;9.500;2022-12-19T05:37:45;100639.94;;;2.34;85.44
15529;BME280;7866;52.280;9.500;2022-12-19T05:42:47;100617.31;;;2.30;86.35
15529;BME280;7866;52.280;9.500;2022-12-19T05:47:49;100602.03;;;2.22;86.83
15529;BME280;7866;52.280;9.500;2022-12-19T05:52:52;100607.97;;;2.13;88.70
15529;BME280;7866;52.280;9.500;2022-12-19T05:57:53;100600.84;;;2.26;87.60
15529;BME280;7866;52.280;9.500;2022-12-19T06:02:55;100597.44;;;2.37;87.00
15529;BME280;7866;52.280;9.500;2022-12-19T06:07:58;100586.41;;;2.43;86.92
15529;BME280;7866;52.280;9.500;2022-12-19T06:13:00;100586.69;;;2.51;86.56
15529;BME280;7866;52.280;9.500;2022-12-19T06:18:02;100587.66;;;2.50;86.78
15529;BME280;7866;52.280;9.500;2022-12-19T06:23:05;100567.97;;;2.54;87.56
15529;BME280;7866;52.280;9.500;2022-12-19T06:28:06;100561.22;;;2.50;89.11
15529;BME280;7866;52.280;9.500;2022-12-19T06:33:08;100573.19;;;2.56;89.60
15529;BME280;7866;52.280;9.500;2022-12-19T06:38:11;100584.47;;;2.58;89.03
15529;BME280;7866;52.280;9.500;2022-12-19T06:43:13;100569.34;;;2.60;89.22
15529;BME280;7866;52.280;9.500;2022-12-19T06:48:14;100567.75;;;2.57;90.64
15529;BME280;7866;52.280;9.500;2022-12-19T06:53:17;100574.38;;;2.63;91.10
15529;BME280;7866;52.280;9.500;2022-12-19T06:58:19;100576.59;;;2.45;92.21
15529;BME280;7866;52.280;9.500;2022-12-19T07:03:23;100591.28;;;2.49;91.75
15529;BME280;7866;52.280;9.500;2022-12-19T07:08:28;100582.16;;;2.53;92.05
15529;BME280;7866;52.280;9.500;2022-12-19T07:13:30;100602.69;;;2.50;92.64
15529;BME280;7866;52.280;9.500;2022-12-19T07:18:36;100594.19;;;2.57;91.18
15529;BME280;7866;52.280;9.500;2022-12-19T07:23:40;100573.19;;;2.56;91.65
15529;BME280;7866;52.280;9.500;2022-12-19T07:28:41;100579.53;;;2.53;92.62
15529;BME280;7866;52.280;9.500;2022-12-19T07:33:43;100588.69;;;2.60;92.07
15529;BME280;7866;52.280;9.500;2022-12-19T07:38:47;100601.69;;;2.63;92.60
15529;BME280;7866;52.280;9.500;2022-12-19T07:43:49;100607.09;;;2.62;91.71
15529;BME280;7866;52.280;9.500;2022-12-19T07:48:54;100596.00;;;2.57;92.88
15529;BME280;7866;52.280;9.500;2022-12-19T07:54:00;100587.22;;;2.56;94.79
15529;BME280;7866;52.280;9.500;2022-12-19T07:59:04;100593.16;;;2.60;94.35
15529;BME280;7866;52.280;9.500;2022-12-19T08:04:06;100590.94;;;2.54;96.79
15529;BME280;7866;52.280;9.500;2022-12-19T08:09:09;100579.66;;;2.52;96.93
15529;BME280;7866;52.280;9.500;2022-12-19T08:14:11;100578.56;;;2.54;97.22
15529;BME280;7866;52.280;9.500;2022-12-19T08:19:12;100572.00;;;2.60;98.13
15529;BME280;7866;52.280;9.500;2022-12-19T08:24:16;100562.03;;;2.63;98.75
15529;BME280;7866;52.280;9.500;2022-12-19T08:29:17;100553.84;;;2.66;99.75
15529;BME280;7866;52.280;9.500;2022-12-19T08:34:19;100559.88;;;2.68;99.97
15529;BME280;7866;52.280;9.500;2022-12-19T08:39:22;100559.56;;;2.73;99.44
15529;BME280;7866;52.280;9.500;2022-12-19T08:44:24;100560.88;;;2.79;100.00
15529;BME280;7866;52.280;9.500;2022-12-19T08:49:25;100556.72;;;2.87;99.33
15529;BME280;7866;52.280;9.500;2022-12-19T08:54:28;100548.50;;;2.79;100.00
15529;BME280;7866;52.280;9.500;2022-12-19T08:59:30;100549.16;;;2.94;100.00
15529;BME280;7866;52.280;9.500;2022-12-19T09:04:32;100532.31;;;2.95;100.00
15529;BME280;7866;52.280;9.500;2022-12-19T09:09:35;100527.91;;;2.95;100.00
15529;BME280;7866;52.280;9.500;2022-12-19T09:14:36;100528.25;;;3.02;100.00
15529;BME280;7866;52.280;9.500;2022-12-19T09:19:38;100527.81;;;3.08;100.00
15529;BME280;7866;52.280;9.500;2022-12-19T09:24:41;100528.16;;;3.15;100.00
15529;BME280;7866;52.280;9.500;2022-12-19T09:29:43;100531.22;;;3.33;100.00
15529;BME280;7866;52.280;9.500;2022-12-19T09:34:44;100540.75;;;3.35;98.91
15529;BME280;7866;52.280;9.500;2022-12-19T09:39:47;100536.53;;;3.44;100.00
15529;BME280;7866;52.280;9.500;2022-12-19T09:44:59;100539.91;;;3.46;100.00
15529;BME280;7866;52.280;9.500;2022-12-19T09:50:23;100536.06;;;3.50;100.00
15529;BME280;7866;52.280;9.500;2022-12-19T09:55:32;100530.06;;;3.59;100.00
15529;BME280;7866;52.280;9.500;2022-12-19T10:00:38;100545.00;;;3.72;100.00
15529;BME280;7866;52.280;9.500;2022-12-19T10:05:45;100524.41;;;3.75;100.00
15529;BME280;7866;52.280;9.500;2022-12-19T10:10:58;100506.09;;;3.83;100.00
15529;BME280;7866;52.280;9.500;2022-12-19T10:16:04;100514.00;;;3.94;100.00
15529;BME280;7866;52.280;9.500;2022-12-19T10:21:11;100505.13;;;3.95;100.00
15529;BME280;7866;52.280;9.500;2022-12-19T10:26:22;100490.06;;;4.07;100.00
15529;BME280;7866;52.280;9.500;2022-12-19T10:31:32;100492.44;;;4.10;100.00
15529;BME280;7866;52.280;9.500;2022-12-19T10:36:41;100463.78;;;4.15;100.00
15529;BME280;7866;52.280;9.500;2022-12-19T10:41:47;100459.16;;;4.17;100.00
15529;BME280;7866;52.280;9.500;2022-12-19T10:46:53;100457.47;;;4.28;100.00
15529;BME280;7866;52.280;9.500;2022-12-19T10:51:59;100452.47;;;4.34;99.64
15529;BME280;7866;52.280;9.500;2022-12-19T10:57:22;100444.72;;;4.42;99.60
15529;BME280;7866;52.280;9.500;2022-12-19T11:02:39;100454.31;;;4.55;99.17
15529;BME280;7866;52.280;9.500;2022-12-19T11:07:41;100471.84;;;4.46;97.18
15529;BME280;7866;52.280;9.500;2022-12-19T11:13:00;100459.56;;;4.45;97.69
15529;BME280;7866;52.280;9.500;2022-12-19T11:18:05;100455.94;;;4.46;97.86
15529;BME280;7866;52.280;9.500;2022-12-19T11:23:12;100448.44;;;4.51;97.10
15529;BME280;7866;52.280;9.500;2022-12-19T11:28:19;100447.94;;;4.57;95.89
15529;BME280;7866;52.280;9.500;2022-12-19T11:33:22;100444.44;;;4.57;96.79
15529;BME280;7866;52.280;9.500;2022-12-19T11:38:33;100438.75;;;4.61;95.73
15529;BME280;7866;52.280;9.500;2022-12-19T11:43:43;100425.72;;;4.58;96.27
15529;BME280;7866;52.280;9.500;2022-12-19T11:48:52;100405.56;;;4.67;96.47
15529;BME280;7866;52.280;9.500;2022-12-19T11:54:03;100415.34;;;4.87;95.43
15529;BME280;7866;52.280;9.500;2022-12-19T11:59:13;100418.34;;;5.04;95.17
15529;BME280;7866;52.280;9.500;2022-12-19T12:04:49;100404.19;;;4.93;95.33
15529;BME280;7866;52.280;9.500;2022-12-19T12:09:57;100411.41;;;5.12;94.52
15529;BME280;7866;52.280;9.500;2022-12-19T12:15:28;100416.47;;;5.15;94.55
15529;BME280;7866;52.280;9.500;2022-12-19T12:20:38;100407.13;;;5.21;93.41
15529;BME280;7866;52.280;9.500;2022-12-19T12:25:57;100409.38;;;5.26;92.95
15529;BME280;7866;52.280;9.500;2022-12-19T12:31:08;100419.31;;;5.33;91.91
15529;BME280;7866;52.280;9.500;2022-12-19T12:36:18;100418.91;;;5.38;92.54
15529;BME280;7866;52.280;9.500;2022-12-19T12:41:34;100421.97;;;5.33;91.96
15529;BME280;7866;52.280;9.500;2022-12-19T12:47:05;100405.38;;;5.41;91.54
15529;BME280;7866;52.280;9.500;2022-12-19T12:52:15;100406.03;;;5.33;91.80
15529;BME280;7866;52.280;9.500;2022-12-19T12:57:33;100405.63;;;5.38;91.86
15529;BME280;7866;52.280;9.500;2022-12-19T13:02:36;100407.03;;;5.42;91.74
15529;BME280;7866;52.280;9.500;2022-12-19T13:07:42;100409.28;;;5.37;91.63
15529;BME280;7866;52.280;9.500;2022-12-19T13:12:58;100414.22;;;5.51;91.87
15529;BME280;7866;52.280;9.500;2022-12-19T13:23:43;100423.78;;;5.63;89.54
15529;BME280;7866;52.280;9.500;2022-12-19T13:28:45;100438.72;;;5.55;90.73
15529;BME280;7866;52.280;9.500;2022-12-19T13:34:10;100428.09;;;5.55;90.43
15529;BME280;7866;52.280;9.500;2022-12-19T13:39:26;100421.38;;;5.51;90.74
15529;BME280;7866;52.280;9.500;2022-12-19T13:44:30;100429.94;;;5.64;90.62
15529;BME280;7866;52.280;9.500;2022-12-19T13:49:38;100429.75;;;5.56;91.65
15529;BME280;7866;52.280;9.500;2022-12-19T13:54:46;100431.69;;;5.54;94.72
15529;BME280;7866;52.280;9.500;2022-12-19T13:59:48;100414.50;;;5.48;96.42
15529;BME280;7866;52.280;9.500;2022-12-19T14:04:52;100419.19;;;5.75;96.91
15529;BME280;7866;52.280;9.500;2022-12-19T14:09:54;100408.66;;;5.64;95.41
15529;BME280;7866;52.280;9.500;2022-12-19T14:14:55;100406.84;;;5.55;95.43
15529;BME280;7866;52.280;9.500;2022-12-19T14:20:22;100407.00;;;5.73;93.91
15529;BME280;7866;52.280;9.500;2022-12-19T14:25:29;100413.44;;;5.70;93.58
15529;BME280;7866;52.280;9.500;2022-12-19T14:30:35;100407.00;;;5.63;93.65
15529;BME280;7866;52.280;9.500;2022-12-19T14:35:44;100414.41;;;5.69;92.82
15529;BME280;7866;52.280;9.500;2022-12-19T14:40:47;100408.53;;;5.65;92.31
15529;BME280;7866;52.280;9.500;2022-12-19T14:45:48;100393.16;;;5.59;92.54
15529;BME280;7866;52.280;9.500;2022-12-19T14:51:02;100384.75;;;5.64;90.90
15529;BME280;7866;52.280;9.500;2022-12-19T14:56:05;100362.94;;;5.70;91.46
15529;BME280;7866;52.280;9.500;2022-12-19T15:01:20;100381.44;;;5.81;90.49
15529;BME280;7866;52.280;9.500;2022-12-19T15:06:26;100383.16;;;5.92;88.97
15529;BME280;7866;52.280;9.500;2022-12-19T15:11:32;100391.97;;;5.92;88.62
15529;BME280;7866;52.280;9.500;2022-12-19T15:17:16;100389.13;;;5.84;87.63
15529;BME280;7866;52.280;9.500;2022-12-19T15:22:19;100390.44;;;6.00;87.33
15529;BME280;7866;52.280;9.500;2022-12-19T15:27:21;100398.00;;;5.95;86.67
15529;BME280;7866;52.280;9.500;2022-12-19T15:32:26;100390.31;;;6.01;87.08
15529;BME280;7866;52.280;9.500;2022-12-19T15:37:29;100386.66;;;6.02;87.34
15529;BME280;7866;52.280;9.500;2022-12-19T15:42:31;100399.97;;;6.12;86.19
15529;BME280;7866;52.280;9.500;2022-12-19T15:47:35;100387.81;;;6.19;85.63
15529;BME280;7866;52.280;9.500;2022-12-19T15:52:38;100382.34;;;6.21;85.04
15529;BME280;7866;52.280;9.500;2022-12-19T15:57:42;100377.28;;;6.17;84.89
15529;BME280;7866;52.280;9.500;2022-12-19T16:02:46;100375.34;;;6.20;85.26
15529;BME280;7866;52.280;9.500;2022-12-19T16:07:49;100362.16;;;6.18;85.46
15529;BME280;7866;52.280;9.500;2022-12-19T16:12:53;100358.53;;;6.29;85.30
15529;BME280;7866;52.280;9.500;2022-12-19T16:17:56;100353.78;;;6.32;84.15
15529;BME280;7866;52.280;9.500;2022-12-19T16:22:59;100351.81;;;6.44;83.67
15529;BME280;7866;52.280;9.500;2022-12-19T16:28:02;100368.88;;;6.51;83.01
15529;BME280;7866;52.280;9.500;2022-12-19T16:33:15;100358.50;;;6.68;82.66
15529;BME280;7866;52.280;9.500;2022-12-19T16:38:19;100358.38;;;6.59;82.62
15529;BME280;7866;52.280;9.500;2022-12-19T16:43:26;100349.69;;;6.67;81.94
15529;BME280;7866;52.280;9.500;2022-12-19T16:48:29;100346.63;;;6.52;82.44
15529;BME280;7866;52.280;9.500;2022-12-19T16:53:32;100354.31;;;6.55;82.55
15529;BME280;7866;52.280;9.500;2022-12-19T16:58:33;100347.88;;;6.48;81.59
15529;BME280;7866;52.280;9.500;2022-12-19T17:03:37;100353.75;;;6.52;82.26
15529;BME280;7866;52.280;9.500;2022-12-19T17:08:42;100341.59;;;6.39;82.23
15529;BME280;7866;52.280;9.500;2022-12-19T17:13:46;100333.34;;;6.33;82.96
15529;BME280;7866;52.280;9.500;2022-12-19T17:18:48;100331.41;;;6.15;83.02
15529;BME280;7866;52.280;9.500;2022-12-19T17:23:52;100323.84;;;6.11;83.48
15529;BME280;7866;52.280;9.500;2022-12-19T17:28:53;100316.72;;;6.11;83.70
15529;BME280;7866;52.280;9.500;2022-12-19T17:33:55;100323.28;;;6.07;84.17
15529;BME280;7866;52.280;9.500;2022-12-19T17:38:59;100323.28;;;6.07;83.66
15529;BME280;7866;52.280;9.500;2022-12-19T17:44:01;100333.78;;;6.19;83.12
15529;BME280;7866;52.280;9.500;2022-12-19T17:49:02;100342.31;;;6.12;83.00
15529;BME280;7866;52.280;9.500;2022-12-19T17:54:09;100355.19;;;6.17;83.87
15529;BME280;7866;52.280;9.500;2022-12-19T17:59:11;100352.94;;;6.12;82.56
15529;BME280;7866;52.280;9.500;2022-12-19T18:04:15;100342.31;;;6.12;83.56
15529;BME280;7866;52.280;9.500;2022-12-19T18:09:19;100344.97;;;6.12;83.96
15529;BME280;7866;52.280;9.500;2022-12-19T18:14:21;100336.16;;;6.02;83.51
15529;BME280;7866;52.280;9.500;2022-12-19T18:19:23;100340.19;;;6.06;83.82
15529;BME280;7866;52.280;9.500;2022-12-19T18:24:29;100329.03;;;6.12;83.94
15529;BME280;7866;52.280;9.500;2022-12-19T18:29:30;100337.00;;;6.12;83.14
15529;BME280;7866;52.280;9.500;2022-12-19T18:34:33;100364.97;;;6.26;83.60
15529;BME280;7866;52.280;9.500;2022-12-19T18:39:37;100370.31;;;6.36;82.55
15529;BME280;7866;52.280;9.500;2022-12-19T18:44:38;100342.59;;;6.29;82.76
15529;BME280;7866;52.280;9.500;2022-12-19T18:49:40;100338.66;;;6.33;82.19
15529;BME280;7866;52.280;9.500;2022-12-19T18:54:44;100366.94;;;6.34;82.79
15529;BME280;7866;52.280;9.500;2022-12-19T18:59:46;100376.88;;;6.41;82.85
15529;BME280;7866;52.280;9.500;2022-12-19T19:04:49;100351.41;;;6.39;82.70
15529;BME280;7866;52.280;9.500;2022-12-19T19:09:52;100366.94;;;6.34;82.84
15529;BME280;7866;52.280;9.500;2022-12-19T19:14:54;100350.97;;;6.34;83.37
15529;BME280;7866;52.280;9.500;2022-12-19T19:19:55;100355.44;;;6.33;83.45
15529;BME280;7866;52.280;9.500;2022-12-19T19:24:59;100379.84;;;6.38;83.08
15529;BME280;7866;52.280;9.500;2022-12-19T19:30:01;100366.91;;;6.53;83.47
15529;BME280;7866;52.280;9.500;2022-12-19T19:35:04;100349.28;;;6.52;82.75
15529;BME280;7866;52.280;9.500;2022-12-19T19:40:10;100367.03;;;6.71;82.91
15529;BME280;7866;52.280;9.500;2022-12-19T19:45:12;100372.03;;;6.74;81.80
15529;BME280;7866;52.280;9.500;2022-12-19T19:50:13;100358.72;;;6.84;82.37
15529;BME280;7866;52.280;9.500;2022-12-19T19:55:17;100355.25;;;6.74;82.73
15529;BME280;7866;52.280;9.500;2022-12-19T20:00:19;100336.59;;;6.74;83.30
15529;BME280;7866;52.280;9.500;2022-12-19T20:05:21;100350.75;;;6.84;82.48
15529;BME280;7866;52.280;9.500;2022-12-19T20:10:24;100348.34;;;6.90;81.54
15529;BME280;7866;52.280;9.500;2022-12-19T20:15:26;100373.25;;;6.99;81.61
15529;BME280;7866;52.280;9.500;2022-12-19T20:20:28;100365.50;;;7.15;81.42
15529;BME280;7866;52.280;9.500;2022-12-19T20:25:31;100366.59;;;7.13;81.46
15529;BME280;7866;52.280;9.500;2022-12-19T20:30:33;100379.75;;;7.24;81.80
15529;BME280;7866;52.280;9.500;2022-12-19T20:35:34;100368.63;;;7.38;81.19
15529;BME280;7866;52.280;9.500;2022-12-19T20:40:37;100359.03;;;7.46;80.69
15529;BME280;7866;52.280;9.500;2022-12-19T20:45:39;100354.66;;;7.54;80.58
15529;BME280;7866;52.280;9.500;2022-12-19T20:50:41;100361.94;;;7.52;80.96
15529;BME280;7866;52.280;9.500;2022-12-19T20:55:51;100375.56;;;7.49;80.51
15529;BME280;7866;52.280;9.500;2022-12-19T21:00:53;100362.75;;;7.35;81.69
15529;BME280;7866;52.280;9.500;2022-12-19T21:05:55;100374.06;;;7.37;81.64
15529;BME280;7866;52.280;9.500;2022-12-19T21:11:00;100384.25;;;7.24;81.58
15529;BME280;7866;52.280;9.500;2022-12-19T21:16:04;100386.50;;;7.19;82.17
15529;BME280;7866;52.280;9.500;2022-12-19T21:21:10;100394.78;;;7.15;82.11
15529;BME280;7866;52.280;9.500;2022-12-19T21:26:14;100392.84;;;7.08;82.69
15529;BME280;7866;52.280;9.500;2022-12-19T21:31:18;100398.00;;;7.19;82.22
15529;BME280;7866;52.280;9.500;2022-12-19T21:36:22;100409.09;;;7.14;82.44
15529;BME280;7866;52.280;9.500;2022-12-19T21:41:25;100417.94;;;7.05;82.48
15529;BME280;7866;52.280;9.500;2022-12-19T21:46:29;100409.88;;;6.87;83.57
15529;BME280;7866;52.280;9.500;2022-12-19T21:51:32;100405.53;;;6.77;83.26
15529;BME280;7866;52.280;9.500;2022-12-19T21:56:37;100396.00;;;6.74;84.43
15529;BME280;7866;52.280;9.500;2022-12-19T22:01:39;100382.97;;;6.81;83.96
15529;BME280;7866;52.280;9.500;2022-12-19T22:06:41;100375.94;;;6.89;84.07
15529;BME280;7866;52.280;9.500;2022-12-19T22:11:45;100357.00;;;7.02;83.83
15529;BME280;7866;52.280;9.500;2022-12-19T22:16:46;100354.34;;;7.30;83.94
15529;BME280;7866;52.280;9.500;2022-12-19T22:21:48;100350.91;;;7.47;83.38
15529;BME280;7866;52.280;9.500;2022-12-19T22:26:51;100350.69;;;7.58;82.44
15529;BME280;7866;52.280;9.500;2022-12-19T22:31:53;100347.41;;;7.64;82.03
15529;BME280;7866;52.280;9.500;2022-12-19T22:36:55;100329.56;;;7.47;82.64
15529;BME280;7866;52.280;9.500;2022-12-19T22:41:58;100333.72;;;7.59;83.28
15529;BME280;7866;52.280;9.500;2022-12-19T22:46:59;100343.22;;;7.62;82.60
15529;BME280;7866;52.280;9.500;2022-12-19T22:52:01;100343.66;;;7.57;82.98
15529;BME280;7866;52.280;9.500;2022-12-19T22:57:04;100329.13;;;7.70;82.91
15529;BME280;7866;52.280;9.500;2022-12-19T23:02:06;100338.22;;;7.77;82.64
15529;BME280;7866;52.280;9.500;2022-12-19T23:07:07;100334.09;;;7.64;82.66
15529;BME280;7866;52.280;9.500;2022-12-19T23:12:10;100320.97;;;7.53;83.28
15529;BME280;7866;52.280;9.500;2022-12-19T23:17:12;100320.84;;;7.55;83.48
15529;BME280;7866;52.280;9.500;2022-12-19T23:22:14;100329.41;;;7.49;83.59
15529;BME280;7866;52.280;9.500;2022-12-19T23:27:17;100344.06;;;7.62;83.85
15529;BME280;7866;52.280;9.500;2022-12-19T23:32:18;100330.59;;;7.64;83.66
15529;BME280;7866;52.280;9.500;2022-12-19T23:37:20;100323.88;;;7.78;84.17
15529;BME280;7866;52.280;9.500;2022-12-19T23:42:23;100321.69;;;7.73;84.39
15529;BME280;7866;52.280;9.500;2022-12-19T23:47:25;100333.19;;;7.92;84.62
15529;BME280;7866;52.280;9.500;2022-12-19T23:52:26;100328.78;;;8.00;84.86
15529;BME280;7866;52.280;9.500;2022-12-19T23:57:29;100321.78;;;7.99;84.71
